Gurn Spring, New York
Current Conditions -  °F | °C
As of 7:53 PM on Tuesday 27 Jan 2015 (Local Time) from KGFL Reporting Station
Overcast Overcast  
Wind Chill: -4°   Ceiling: 4600
Heat Index: 13°   Visibility: 9mi
Dew Point:   Wind: 18mph
Humidity: 59%   Direction: 10°N
Pressure: 29.88"   Gusts: 26mph
Location:  43.1979°N, 73.6839°W
Report Text: KGFL 280053Z AUTO 01016G23KT 9SM SCT037 OVC046 M11/M17 A2988 RMK AO2 SLP131 T11061172
Loading
Personal Weather Stations






























Interactive Weather Map New forecast layout! Learn more

10-Day Weather Forecast

Advertisements
Track Severe Weather on mobile